Conejos, Valles Caldera, New Mexico Weather observations

Data are for 10 minute period ending at time listed.
 Day   Time   Solar   Ave.   Ave.  Ave.  Vector  Max.   Baro.   Total    
  of    of     Rad.   Air    Rel.  Wind   Wind   Wind  Press.  Precip.   
Year   Day            Temp.  Hum.  Speed  Dir.   Gust                    
2014   (MST)  Kw/m2    F      %     mph   deg.    mph    mb.     in.     
-------------------------------------------------------------------------
 324    4:30   0.00   32.7    19    1.7   303     3.6   99999.0    0.00 
 324    4:40   0.00   33.9    18    2.5   298     4.8   99999.0    0.00 
 324    4:50   0.00   33.5    17    2.5   313     4.8   99999.0    0.00 
 324    5:00   0.00   32.4    21    3.8   325     7.2   99999.0    0.00 
 324    5:10   0.00   32.8    22    4.4   324     9.0   99999.0    0.00 
 324    5:20   0.00   33.1    21    3.4   324     5.4   99999.0    0.00 
 324    5:30   0.00   32.3    22    3.3   330     6.0   99999.0    0.00 
 324    5:40   0.00   32.8    21    3.1   330     6.0   99999.0    0.00 
 324    5:50   0.00   31.9    22    0.8   279     2.4   99999.0    0.00 
 324    6:00   0.00   30.3    21    0.2   256     1.2   99999.0    0.00 
 324    6:10   0.00   30.8    20    0.4   331     1.8   99999.0    0.00 
 324    6:20   0.00   28.7    22    1.6   332     2.4   99999.0    0.00 
 324    6:30   0.00   27.5    24    1.7   325     3.0   99999.0    0.00 
 324    6:40   0.00   26.4    26    1.4   325     2.4   99999.0    0.00 
 324    6:50   0.00   26.1    24    1.0   339     3.0   99999.0    0.00 
 324    7:00   0.00   26.5    23    0.8   318     1.8   99999.0    0.00 
 324    7:10   0.01   27.4    22    0.1   313     1.2   99999.0    0.00 
 324    7:20   0.02   27.8    20    0.2   336     1.8   99999.0    0.00 
 324    7:30   0.02   29.1    20    1.5   309     3.6   99999.0    0.00 
 324    7:40   0.03   30.2    19    1.9   322     3.6   99999.0    0.00 
 324    7:50   0.04   31.4    18    1.5   332     3.6   99999.0    0.00 
 324    8:00   0.07   33.7    16    2.0   321     4.2   99999.0    0.00 
 324    8:10   0.04   35.6    15    2.0   320     3.6   99999.0    0.00 
 324    8:20   0.04   36.1    15    2.7   316     4.2   99999.0    0.00 
 324    8:30   0.13   36.8    15    2.5   320     4.2   99999.0    0.00 
 324    8:40   0.12   37.2    15    2.2   306     4.8   99999.0    0.00 
 324    8:50   0.13   38.4    15    2.0   303     3.6   99999.0    0.00 
 324    9:00   0.15   38.5    16    2.8   321     5.4   99999.0    0.00 
 324    9:10   0.39   39.6    13    2.9   304     6.6   99999.0    0.00 
 324    9:20   0.33   40.6    12    3.2   309     7.2   99999.0    0.00 
 324    9:30   0.48   41.1    12    2.9   306     6.6   99999.0    0.00 
 324    9:40   0.35   41.5    12    3.0   327     6.6   99999.0    0.00 
 324    9:50   0.17   41.8    12    3.2   319     8.4   99999.0    0.00 
 324   10:00   0.07   42.1    13    2.6   352     4.8   99999.0    0.00 
 324   10:10   0.06   42.0    14    2.8   340     5.4   99999.0    0.00 
 324   10:20   0.54   42.0    15    2.5   305     6.0   99999.0    0.00 
 324   10:30   0.59   42.1    16    2.6   204     4.5   99999.0    0.00 
 324   10:40   0.60   42.5    15    3.1   200     6.0   99999.0    0.00 
 324   10:50   0.61   42.8    15    3.2   260     7.2   99999.0    0.00 
 324   11:00   0.62   43.8    14    2.6   267     7.2   99999.0    0.00 
 324   11:10   0.63   44.3    14    2.9   218     7.2   99999.0    0.00 
 324   11:20   0.63   45.7    14    2.8   155     7.2   99999.0    0.00 
 324   11:30   0.64   45.7    14    2.5   318     4.2   99999.0    0.00 
 324   11:40   0.64   45.9    13    2.5    15     4.8   99999.0    0.00 
 324   11:50   0.64   46.7    12    2.8   355     6.6   99999.0    0.00 
 324   12:00   0.64   47.2    13    2.9   212     6.0   99999.0    0.00 
 324   12:10   0.63   46.7    12    3.3   196     6.0   99999.0    0.01 
 324   12:20   0.63   46.9    13    2.9   205     5.4   99999.0    0.00 
 324   12:30   0.62   47.0    13    3.0   142     6.0   99999.0    0.00 
 324   12:40   0.56   47.8    13    2.5   201     6.6   99999.0    0.00 
 324   12:50   0.61   47.4    13    2.4   105     4.8   99999.0    0.00 
 324   13:00   0.60   47.1    14    3.1   329     6.6   99999.0    0.00 
 324   13:10   0.57   46.7    14    3.0   314     6.0   99999.0    0.01 
 324   13:20   0.56   46.8    13    3.0   259     6.0   99999.0    0.00 
 324   13:30   0.55   46.6    14    2.7   334     6.6   99999.0    0.00 
 324   13:40   0.43   46.2    14    3.1   355     6.6   99999.0    0.00 
 324   13:50   0.06   46.5    14    2.9    16     7.2   99999.0    0.00 
 324   14:00   0.06   47.0    15    3.4   135     9.0   99999.0    0.00 
 324   14:10   0.09   46.9    15    3.1   348     6.6   99999.0    0.00 
 324   14:20   0.11   46.5    17    3.6   353     6.6   99999.0    0.00 
 324   14:30   0.08   47.0    17    3.1    15     7.8   99999.0    0.00 
 324   14:40   0.19   45.8    20    3.3   343     6.6   99999.0    0.01 
 324   14:50   0.35   45.7    20    3.4   327     7.8   99999.0    0.00 
 324   15:00   0.21   44.9    22    2.6   354     6.6   99999.0    0.00 
 324   15:10   0.04   44.7    22    2.3    10     5.4   99999.0    0.00 
 324   15:20   0.08   44.0    24    3.6   350     7.8   99999.0    0.00 
 324   15:30   0.06   44.2    25    3.1    27     5.4   99999.0    0.00 
 324   15:40   0.03   43.7    24    3.2    26     7.2   99999.0    0.00 
 324   15:50   0.03   42.5    25    3.1    15     7.2   99999.0    0.00 
 324   16:00   0.02   41.4    26    2.7     2     4.8   99999.0    0.00 
 324   16:10   0.01   40.7    26    1.8   307     3.9   99999.0    0.00 
 324   16:20   0.01   39.5    26    1.8   308     4.8   99999.0    0.00 
 324   16:30   0.01   38.7    26    1.7   333     3.0   99999.0    0.00 
 324   16:40   0.01   38.0    26    1.2   304     2.4   99999.0    0.00 
 324   16:50   0.01   38.6    24    2.1   329     5.4   99999.0    0.00 
 324   17:00   0.00   39.6    22    2.8   318     4.8   99999.0    0.00 
 324   17:10   0.00   38.7    23    1.5   323     3.6   99999.0    0.00 
 324   17:20   0.00   38.0    23    1.4   297     3.6   99999.0    0.00 
 324   17:30   0.00   37.1    24    1.1   306     2.4   99999.0    0.00 
 324   17:40   0.00   36.0    25    0.5   332     2.4   99999.0    0.00 
 324   17:50   0.00   33.6    28    0.1   318     1.2   99999.0    0.00 
 324   18:00   0.00   32.9    29    0.5   230     1.8   99999.0    0.00 
 324   18:10   0.00   33.1    30    0.7   323     1.8   99999.0    0.00 
 324   18:20   0.00   32.6    31    1.6   326     2.4   99999.0    0.00 
 324   18:30   0.00   33.5    31    1.7   322     3.6   99999.0    0.00 
 324   18:40   0.00   33.6    32    2.1   329     3.6   99999.0    0.00 
 324   18:50   0.00   34.3    32    2.2   323     3.6   99999.0    0.00 
 324   19:00   0.00   34.8    32    2.4   325     3.9   99999.0    0.00 
 324   19:10   0.00   34.2    34    2.5   337     3.6   99999.0    0.00 
 324   19:20   0.00   34.7    35    3.3   329     5.4   99999.0    0.00 
 324   19:30   0.00   35.4    34    3.4   329     4.8   99999.0    0.00 
 324   19:40   0.00   35.3    35    3.2   331     5.4   99999.0    0.00 
 324   19:50   0.00   36.0    34    3.6   331     6.0   99999.0    0.00 
 324   20:00   0.00   35.5    34    3.4   333     5.4   99999.0    0.00 
 324   20:10   0.00   35.1    35    3.4   332     6.0   99999.0    0.00 
 324   20:20   0.00   34.8    37    3.3   332     4.8   99999.0    0.00 
 324   20:30   0.00   35.4    38    3.2   330     4.8   99999.0    0.00 
 324   20:40   0.00   35.9    38    3.1   331     4.8   99999.0    0.00 
 324   20:50   0.00   35.9    39    3.0   338     4.2   99999.0    0.00 
 324   21:00   0.00   36.0    40    3.3   334     5.4   99999.0    0.00 
 324   21:10   0.00   35.5    42    2.9   334     4.5   99999.0    0.00 
 324   21:20   0.00   35.1    43    2.6   336     4.2   99999.0    0.00 
 324   21:30   0.00   34.3    44    2.8   335     3.6   99999.0    0.00 
 324   21:40   0.00   34.0    44    2.2   333     3.6   99999.0    0.00 
 324   21:50   0.00   33.2    46    1.8   331     3.0   99999.0    0.00 
 324   22:00   0.00   32.0    47    0.9   315     1.8   99999.0    0.00 
 324   22:10   0.00   31.1    49    0.8   328     1.8   99999.0    0.00 
 324   22:20   0.00   30.5    49    1.1   316     2.4   99999.0    0.00 
 324   22:30   0.00   30.6    49    1.7   326     3.0   99999.0    0.00 
 324   22:40   0.00   29.4    51    2.1   334     3.0   99999.0    0.00 
 324   22:50   0.00   28.8    51    2.4   332     3.6   99999.0    0.00 
 324   23:00   0.00   27.8    52    2.2   333     3.6   99999.0    0.00 
 324   23:10   0.00   27.1    54    2.1   330     3.0   99999.0    0.00 
 324   23:20   0.00   27.5    53    2.6   326     3.6   99999.0    0.00 
 324   23:30   0.00   29.5    50    2.7   331     3.6   99999.0    0.00 
 324   23:40   0.00   30.4    51    2.4   330     3.6   99999.0    0.00 
 324   23:50   0.00   30.3    52    2.0   321     3.0   99999.0    0.00 
 325    0:00   0.00   29.2    54    1.5   311     2.4   99999.0    0.00 
 325    0:10   0.00   28.6    58    1.4   317     2.4   99999.0    0.00 
 325    0:20   0.00   28.7    61    2.4   325     3.6   99999.0    0.00 
 325    0:30   0.00   28.7    62    2.1   329     3.6   99999.0    0.00 
 325    0:40   0.00   28.6    63    0.9   328     1.8   99999.0    0.00 
 325    0:50   0.00   28.7    64    2.0   322     3.0   99999.0    0.00 
 325    1:00   0.00   29.0    63    1.4   317     3.0   99999.0    0.00 
 325    1:10   0.00   28.6    64    0.4   305     1.8   99999.0    0.00 
 325    1:20   0.00   28.5    65    0.0     0     0.0   99999.0    0.00 
 325    1:30   0.00   28.2    65    0.0     0     0.0   99999.0    0.00 
 325    1:40   0.00   27.7    66    0.0   300     1.2   99999.0    0.00 
 325    1:50   0.00   27.5    68    1.5   323     2.4   99999.0    0.00 
 325    2:00   0.00   28.6    65    2.3   328     3.6   99999.0    0.00 
 325    2:10   0.00   28.1    66    1.7   320     2.4   99999.0    0.00 
 325    2:20   0.00   28.1    66    1.5   315     2.4   99999.0    0.00 
 325    2:30   0.00   28.3    66    1.2   326     2.4   99999.0    0.00 
 325    2:40   0.00   28.6    64    1.4   320     2.4   99999.0    0.00 
 325    2:50   0.00   28.7    64    1.2   314     1.8   99999.0    0.00 
 325    3:00   0.00   28.5    63    1.5   320     1.8   99999.0    0.00 
 325    3:10   0.00   28.9    63    1.3   321     2.4   99999.0    0.00 
 325    3:20   0.00   28.7    62    1.4   317     2.4   99999.0    0.00 
 325    3:30   0.00   30.0    60    1.4   327     2.4   99999.0    0.00 
 325    3:40   0.00   30.4    58    1.2   317     1.8   99999.0    0.00 
 325    3:50   0.00   29.6    59    1.2   319     2.4   99999.0    0.00 
 325    4:00   0.00   29.1    60    1.2   317     2.4   99999.0    0.00 
 325    4:10   0.00   28.2    62    0.4   304     1.8   99999.0    0.00 
 325    4:20   0.00   27.4    64    0.0   298     1.2   99999.0    0.00 

Return to Conejos, Valles Caldera graphs page.


Western Regional Climate Center,wrcc@dri.edu